Time;durP1;ratioP1;P1;durP2;ratioP2;P2;SDS_P1;SDS_P2;PMS_P1;PMS_P2;Temp;Humidity;BMP_temperature;BMP_pressure;BME280_temperature;BME280_humidity;BME280_pressure;Samples;Min_cycle;Max_cycle;Signal;HPM_P1;HPM_P2
2021/01/13 00:00:08;;;;;;;45.88;22.85;;;6.30;95.70;;;;;;5061732;28;20024;-82
2021/01/13 00:02:34;;;;;;;40.58;20.83;;;6.30;96.00;;;;;;5030548;28;20036;-82
2021/01/13 00:05:00;;;;;;;40.63;21.30;;;6.40;96.00;;;;;;5044714;28;20045;-81
2021/01/13 00:07:26;;;;;;;41.00;22.15;;;6.40;95.80;;;;;;5030100;28;20464;-81
2021/01/13 00:09:51;;;;;;;39.95;21.10;;;6.40;95.90;;;;;;5040447;28;20552;-82
2021/01/13 00:12:17;;;;;;;41.03;23.05;;;6.40;95.90;;;;;;5027790;28;20021;-81
2021/01/13 00:14:43;;;;;;;42.92;22.73;;;6.40;96.00;;;;;;5033147;28;20029;-82
2021/01/13 00:17:09;;;;;;;;;;;6.40;95.90;;;;;;5052946;28;20021;-81
2021/01/13 00:19:35;;;;;;;39.38;21.15;;;6.40;96.00;;;;;;5033368;28;19913;-81
2021/01/13 00:22:00;;;;;;;41.63;21.92;;;6.40;95.90;;;;;;5026577;28;20029;-82
2021/01/13 00:24:26;;;;;;;43.95;21.80;;;6.40;96.20;;;;;;5050107;28;20116;-81
2021/01/13 00:27:02;;;;;;;39.42;21.38;;;6.40;96.20;;;;;;5033455;28;20025;-82
2021/01/13 00:29:29;;;;;;;43.40;22.50;;;6.40;95.80;;;;;;5063574;28;20025;-82
2021/01/13 00:31:58;;;;;;;42.75;22.42;;;6.40;95.80;;;;;;5044683;28;20021;-81
2021/01/13 00:34:25;;;;;;;44.55;22.05;;;6.40;96.40;;;;;;5024228;28;20032;-81
2021/01/13 00:36:50;;;;;;;49.72;24.73;;;6.40;97.10;;;;;;5047845;28;20071;-82
2021/01/13 00:39:16;;;;;;;47.58;24.17;;;6.40;96.70;;;;;;5033890;28;20433;-82
2021/01/13 00:41:42;;;;;;;45.13;22.80;;;6.40;96.70;;;;;;5042562;28;20041;-81
2021/01/13 00:44:08;;;;;;;44.58;22.92;;;6.40;97.00;;;;;;5034177;28;20061;-81
2021/01/13 00:46:39;;;;;;;46.22;24.63;;;6.40;97.20;;;;;;5047592;28;20060;-82
2021/01/13 00:49:06;;;;;;;46.83;24.60;;;6.40;96.80;;;;;;5036741;28;20168;-81
2021/01/13 00:51:34;;;;;;;48.13;23.42;;;6.40;96.80;;;;;;5034606;28;20037;-82
2021/01/13 00:53:59;;;;;;;51.50;25.08;;;6.40;97.00;;;;;;5056440;28;20489;-82
2021/01/13 00:56:25;;;;;;;46.33;23.48;;;6.30;97.30;;;;;;5036323;28;20021;-82
2021/01/13 00:58:51;;;;;;;46.25;23.77;;;6.30;97.60;;;;;;5034306;28;20156;-82
2021/01/13 01:01:17;;;;;;;53.83;24.67;;;6.30;97.60;;;;;;5032909;28;20020;-82
2021/01/13 01:03:42;;;;;;;46.13;23.10;;;6.40;97.60;;;;;;5056422;28;20131;-83
2021/01/13 01:06:12;;;;;;;49.38;24.38;;;6.40;97.60;;;;;;5039280;28;20059;-82
2021/01/13 01:08:37;;;;;;;55.25;24.88;;;6.40;97.80;;;;;;5033397;28;20037;-82
2021/01/13 01:11:05;;;;;;;52.13;24.15;;;6.40;98.00;;;;;;5022697;28;20520;-83
2021/01/13 01:13:31;;;;;;;57.67;26.13;;;6.40;97.70;;;;;;5035152;28;20045;-83
2021/01/13 01:15:57;;;;;;;;;;;6.40;97.80;;;;;;5032920;28;20060;-83
2021/01/13 01:18:23;;;;;;;50.65;22.83;;;6.40;97.80;;;;;;5028837;28;20347;-82
2021/01/13 01:20:48;;;;;;;49.08;24.05;;;6.40;97.90;;;;;;5022242;28;20475;-82
2021/01/13 01:23:14;;;;;;;54.38;25.33;;;6.40;97.80;;;;;;5035600;28;20083;-83
2021/01/13 01:25:39;;;;;;;53.25;23.85;;;6.40;98.00;;;;;;5030553;28;20029;-83
2021/01/13 01:28:05;;;;;;;54.90;24.70;;;6.30;98.20;;;;;;5025073;28;20398;-82
2021/01/13 01:30:31;;;;;;;52.45;22.92;;;6.30;98.20;;;;;;5061094;28;20032;-83
2021/01/13 01:32:57;;;;;;;50.10;22.67;;;6.30;98.50;;;;;;5045906;28;20041;-83
2021/01/13 01:35:23;;;;;;;41.05;20.23;;;6.40;98.20;;;;;;5046161;28;20100;-83
2021/01/13 01:37:49;;;;;;;43.10;20.25;;;6.40;98.00;;;;;;5061185;28;20414;-83
2021/01/13 01:40:16;;;;;;;55.42;25.02;;;6.40;97.90;;;;;;5040069;28;20029;-82
2021/01/13 01:42:50;;;;;;;60.65;26.65;;;6.40;98.20;;;;;;5038732;28;20029;-82
2021/01/13 01:45:27;;;;;;;56.53;25.42;;;6.40;98.50;;;;;;5035497;28;20038;-82
2021/01/13 01:48:25;;;;;;;64.40;27.45;;;6.40;98.40;;;;;;5038410;28;20029;-83
2021/01/13 01:50:52;;;;;;;57.30;24.90;;;6.30;98.60;;;;;;5025204;28;20031;-81
2021/01/13 01:53:48;;;;;;;58.97;25.55;;;6.40;98.80;;;;;;5059819;28;20059;-83
2021/01/13 01:56:23;;;;;;;53.28;23.55;;;6.40;98.90;;;;;;5037200;28;20548;-83
2021/01/13 01:58:59;;;;;;;54.85;23.20;;;6.40;98.90;;;;;;5041551;28;20021;-83
2021/01/13 02:01:36;;;;;;;59.57;25.30;;;6.40;98.80;;;;;;5036505;28;20044;-83
2021/01/13 02:04:25;;;;;;;59.47;25.33;;;6.40;99.00;;;;;;5042475;28;20041;-83
2021/01/13 02:06:57;;;;;;;52.72;23.10;;;6.40;99.10;;;;;;5025677;28;20065;-83
2021/01/13 02:09:24;;;;;;;53.47;24.60;;;6.40;99.10;;;;;;5027935;28;20079;-83
2021/01/13 02:11:53;;;;;;;58.47;25.42;;;6.40;99.00;;;;;;5038232;28;20028;-83
2021/01/13 02:14:18;;;;;;;56.90;23.42;;;6.40;99.10;;;;;;5034418;28;20032;-83
2021/01/13 02:16:50;;;;;;;59.75;24.65;;;6.40;99.10;;;;;;5050058;28;20033;-83
2021/01/13 02:19:47;;;;;;;61.90;26.33;;;6.50;99.20;;;;;;5045125;28;20029;-83
2021/01/13 02:22:18;;;;;;;63.00;25.08;;;6.50;99.20;;;;;;5060867;28;20033;-83
2021/01/13 02:25:11;;;;;;;60.63;22.75;;;6.50;99.20;;;;;;5024867;28;20069;-83
2021/01/13 02:28:14;;;;;;;54.13;23.20;;;6.50;99.20;;;;;;5032346;28;20028;-83
2021/01/13 02:30:56;;;;;;;51.13;22.73;;;6.50;99.20;;;;;;5023924;28;20025;-83
2021/01/13 02:33:32;;;;;;;51.33;21.50;;;6.60;99.20;;;;;;5042715;28;20021;-82
2021/01/13 02:36:18;;;;;;;51.97;22.70;;;6.60;99.20;;;;;;5049022;28;20028;-83
2021/01/13 02:38:51;;;;;;;56.92;22.30;;;6.60;99.20;;;;;;5064287;28;20036;-83
2021/01/13 02:41:18;;;;;;;51.67;21.92;;;6.50;99.00;;;;;;5035917;28;20466;-83
2021/01/13 02:43:57;;;;;;;53.75;23.92;;;6.60;99.10;;;;;;5046839;28;20044;-83
2021/01/13 02:46:50;;;;;;;55.33;22.55;;;6.60;99.10;;;;;;5045401;28;20055;-83
2021/01/13 02:49:26;;;;;;;53.35;21.67;;;6.60;99.20;;;;;;5035510;28;20147;-84
2021/01/13 02:51:57;;;;;;;48.22;21.55;;;6.60;99.20;;;;;;5051236;28;20423;-83
2021/01/13 02:54:36;;;;;;;47.95;19.58;;;6.60;99.20;;;;;;5035613;28;20037;-84
2021/01/13 02:57:20;;;;;;;42.42;18.83;;;6.60;99.20;;;;;;5040217;28;20021;-83
2021/01/13 02:59:48;;;;;;;40.85;19.80;;;6.60;99.10;;;;;;5021706;28;20038;-83
2021/01/13 03:02:15;;;;;;;54.38;23.05;;;6.60;99.10;;;;;;5032529;28;20029;-83
2021/01/13 03:04:41;;;;;;;65.32;23.23;;;6.60;99.20;;;;;;5035586;28;20036;-83
2021/01/13 03:07:12;;;;;;;48.72;21.45;;;6.60;99.20;;;;;;5036545;28;20025;-83
2021/01/13 03:09:48;;;;;;;55.03;21.63;;;6.60;99.30;;;;;;5024710;28;20044;-83
2021/01/13 03:12:24;;;;;;;47.50;21.50;;;6.60;99.30;;;;;;5027625;28;20025;-83
2021/01/13 03:14:54;;;;;;;57.83;21.53;;;6.60;99.30;;;;;;5062244;28;20028;-83
2021/01/13 03:17:29;;;;;;;55.97;21.55;;;6.60;99.50;;;;;;5033392;28;20117;-83
2021/01/13 03:19:57;;;;;;;57.78;22.60;;;6.70;99.60;;;;;;5057964;28;20021;-83
2021/01/13 03:22:28;;;;;;;69.47;22.63;;;6.70;99.60;;;;;;5030791;28;20033;-82
2021/01/13 03:25:03;;;;;;;56.63;20.67;;;6.70;99.50;;;;;;5040140;28;20030;-83
2021/01/13 03:27:33;;;;;;;54.97;21.42;;;6.60;99.60;;;;;;5055606;28;20053;-84
2021/01/13 03:30:03;;;;;;;64.32;22.25;;;6.60;99.60;;;;;;5033075;28;20068;-83
2021/01/13 03:33:03;;;;;;;56.13;20.75;;;6.60;99.70;;;;;;5051943;28;20029;-84
2021/01/13 03:35:42;;;;;;;52.08;20.20;;;6.70;99.70;;;;;;5050864;28;20025;-83
2021/01/13 03:38:14;;;;;;;58.97;20.00;;;6.60;99.60;;;;;;5038513;28;20120;-83
2021/01/13 03:40:43;;;;;;;52.90;20.27;;;6.60;99.60;;;;;;5028237;28;20034;-83
2021/01/13 03:43:19;;;;;;;56.10;20.65;;;6.60;99.70;;;;;;5054442;28;20079;-82
2021/01/13 03:45:51;;;;;;;53.40;20.23;;;6.70;99.70;;;;;;5055828;28;20040;-83
2021/01/13 03:48:41;;;;;;;50.80;19.77;;;6.80;99.70;;;;;;5034409;28;20475;-83
2021/01/13 03:51:25;;;;;;;59.35;21.85;;;6.70;99.70;;;;;;5035376;28;20029;-83
2021/01/13 03:53:51;;;;;;;50.72;20.60;;;6.70;99.80;;;;;;5047776;28;20029;-83
2021/01/13 03:56:25;;;;;;;56.05;20.48;;;6.70;99.70;;;;;;5036673;28;20028;-83
2021/01/13 03:58:50;;;;;;;48.55;19.80;;;6.80;99.70;;;;;;5056096;28;20013;-83
2021/01/13 04:01:22;;;;;;;56.90;20.35;;;6.80;99.70;;;;;;5060911;28;20017;-82
2021/01/13 04:04:34;;;;;;;50.47;19.38;;;6.80;99.80;;;;;;5040989;28;20550;-83
2021/01/13 04:07:01;;;;;;;49.33;18.58;;;6.80;99.70;;;;;;4963308;28;20077;-83
2021/01/13 04:09:31;;;;;;;48.92;18.42;;;6.80;99.80;;;;;;5039101;28;20024;-83
2021/01/13 04:12:21;;;;;;;48.17;19.35;;;6.90;99.90;;;;;;5058280;28;20067;-82
2021/01/13 04:14:49;;;;;;;47.80;19.67;;;6.90;99.90;;;;;;5046462;28;20043;-84
2021/01/13 04:17:16;;;;;;;50.80;19.17;;;7.00;99.90;;;;;;5025110;28;20060;-83
2021/01/13 04:19:46;;;;;;;52.40;20.35;;;7.10;99.90;;;;;;5037944;28;20028;-84
2021/01/13 04:22:13;;;;;;;65.65;20.73;;;7.20;99.90;;;;;;5054865;28;20482;-83
2021/01/13 04:24:44;;;;;;;69.90;21.73;;;7.30;99.90;;;;;;5043774;28;20039;-83
2021/01/13 04:27:17;;;;;;;45.22;19.52;;;7.30;99.90;;;;;;5029301;28;20025;-83
2021/01/13 04:29:43;;;;;;;43.63;18.90;;;7.40;99.90;;;;;;5029015;28;20044;-83
2021/01/13 04:32:10;;;;;;;42.33;16.98;;;7.30;99.90;;;;;;5043109;28;20032;-83
2021/01/13 04:34:37;;;;;;;45.58;17.63;;;7.30;99.90;;;;;;5043710;28;20055;-82
2021/01/13 04:37:05;;;;;;;52.97;18.33;;;7.30;99.90;;;;;;5028714;28;20048;-83
2021/01/13 04:39:31;;;;;;;68.57;19.38;;;7.40;99.90;;;;;;5030952;28;20395;-83
2021/01/13 04:42:08;;;;;;;57.67;19.75;;;7.40;99.90;;;;;;5061472;28;20489;-83
2021/01/13 04:44:44;;;;;;;66.70;18.75;;;7.50;99.90;;;;;;5051262;28;20052;-83
2021/01/13 04:47:10;;;;;;;75.63;19.48;;;7.50;99.90;;;;;;5035429;28;20029;-83
2021/01/13 04:49:37;;;;;;;80.13;20.17;;;7.60;99.90;;;;;;5057307;28;20473;-83
2021/01/13 04:52:06;;;;;;;53.83;17.38;;;7.70;99.90;;;;;;5046385;28;20028;-83
2021/01/13 04:54:36;;;;;;;47.53;17.33;;;7.80;99.90;;;;;;5036814;28;20124;-83
2021/01/13 04:57:32;;;;;;;57.67;16.80;;;7.80;99.90;;;;;;5030369;28;20064;-83
2021/01/13 05:00:11;;;;;;;55.28;15.98;;;7.90;99.90;;;;;;5038853;28;20485;-84
2021/01/13 05:02:47;;;;;;;67.55;17.25;;;8.00;99.90;;;;;;5035737;28;20020;-83
2021/01/13 05:05:21;;;;;;;63.72;16.02;;;8.00;99.90;;;;;;5028341;28;20037;-82
2021/01/13 05:08:17;;;;;;;70.25;17.30;;;8.00;99.90;;;;;;5021868;28;20097;-83
2021/01/13 05:10:43;;;;;;;73.88;16.55;;;8.00;99.90;;;;;;5030352;28;20123;-83
2021/01/13 05:13:17;;;;;;;63.50;15.77;;;8.00;99.90;;;;;;5048778;28;20092;-84
2021/01/13 05:15:57;;;;;;;67.50;14.93;;;8.00;99.90;;;;;;5046128;28;20501;-84
2021/01/13 05:18:52;;;;;;;82.45;15.30;;;8.00;99.90;;;;;;5037361;28;20033;-84
2021/01/13 05:21:22;;;;;;;64.90;15.38;;;8.00;99.90;;;;;;5034761;28;20033;-84
2021/01/13 05:23:55;;;;;;;61.80;14.85;;;8.10;99.90;;;;;;5039997;28;20037;-83
2021/01/13 05:26:24;;;;;;;55.05;12.38;;;8.10;99.90;;;;;;5038476;28;20359;-83
2021/01/13 05:29:04;;;;;;;64.13;13.55;;;8.10;99.90;;;;;;5053751;28;20026;-84
2021/01/13 05:31:35;;;;;;;63.88;12.93;;;8.10;99.90;;;;;;5060189;28;20052;-83
2021/01/13 05:34:02;;;;;;;61.13;13.52;;;8.10;99.90;;;;;;5046561;28;20080;-84
2021/01/13 05:36:32;;;;;;;68.60;12.60;;;8.10;99.90;;;;;;5036309;28;20060;-84
2021/01/13 05:39:10;;;;;;;73.10;13.70;;;8.10;99.90;;;;;;5031703;28;20039;-84
2021/01/13 05:41:38;;;;;;;72.43;13.70;;;8.10;99.90;;;;;;5053331;28;20016;-83
2021/01/13 05:44:04;;;;;;;64.65;14.43;;;8.10;99.90;;;;;;5033562;28;20037;-84
2021/01/13 05:46:44;;;;;;;74.85;15.52;;;8.10;99.90;;;;;;5027247;28;20075;-84
2021/01/13 05:49:11;;;;;;;71.30;13.82;;;8.10;99.90;;;;;;5030068;28;20100;-84
2021/01/13 05:51:37;;;;;;;79.35;15.00;;;8.10;99.90;;;;;;5025256;28;20020;-84
2021/01/13 05:54:03;;;;;;;;;;;8.10;99.90;;;;;;5035257;28;20385;-84
2021/01/13 05:56:29;;;;;;;75.20;12.68;;;8.10;99.90;;;;;;5050708;28;19909;-84
2021/01/13 05:59:02;;;;;;;72.28;14.15;;;8.20;99.90;;;;;;5035539;28;20610;-84
2021/01/13 06:01:41;;;;;;;57.35;12.55;;;8.30;99.90;;;;;;5043010;28;20037;-84
2021/01/13 06:04:08;;;;;;;56.38;11.00;;;8.30;99.90;;;;;;5038850;28;20473;-84
2021/01/13 06:06:35;;;;;;;70.65;13.13;;;8.30;99.90;;;;;;5026519;28;20021;-84
2021/01/13 06:09:03;;;;;;;67.72;11.82;;;8.30;99.90;;;;;;5031892;28;20340;-83
2021/01/13 06:11:32;;;;;;;49.88;10.30;;;8.30;99.90;;;;;;5035871;28;20021;-84
2021/01/13 06:14:05;;;;;;;50.78;9.20;;;8.40;99.90;;;;;;5033403;28;20792;-84
2021/01/13 06:16:32;;;;;;;52.65;8.80;;;8.40;99.90;;;;;;5029890;28;20055;-84
2021/01/13 06:18:58;;;;;;;43.55;9.13;;;8.40;99.90;;;;;;5051336;28;20029;-84
2021/01/13 06:21:23;;;;;;;41.60;9.05;;;8.40;99.90;;;;;;5035230;28;20087;-83
2021/01/13 06:23:51;;;;;;;42.28;9.55;;;8.40;99.90;;;;;;5030149;28;20041;-84
2021/01/13 06:26:18;;;;;;;49.05;8.23;;;8.50;99.90;;;;;;5032807;28;20041;-84
2021/01/13 06:28:59;;;;;;;31.30;8.15;;;8.50;99.90;;;;;;5055814;28;20053;-83
2021/01/13 06:31:26;;;;;;;37.75;7.72;;;8.50;99.90;;;;;;5031496;28;20029;-84
2021/01/13 06:34:25;;;;;;;39.58;8.07;;;8.50;99.90;;;;;;5055947;28;20004;-85
2021/01/13 06:37:06;;;;;;;27.42;6.95;;;8.60;99.90;;;;;;5030463;28;20138;-84
2021/01/13 06:39:33;;;;;;;28.17;7.43;;;8.60;99.90;;;;;;5060005;28;20056;-84
2021/01/13 06:41:59;;;;;;;47.20;8.07;;;8.70;99.90;;;;;;5036475;28;20025;-84
2021/01/13 06:44:25;;;;;;;30.83;11.18;;;8.70;99.90;;;;;;5029729;28;20661;-84
2021/01/13 06:46:53;;;;;;;26.38;6.82;;;8.70;99.90;;;;;;5027151;28;20280;-84
2021/01/13 06:49:21;;;;;;;22.23;6.90;;;8.70;99.90;;;;;;5037213;28;20024;-84
2021/01/13 06:51:51;;;;;;;19.33;5.97;;;8.80;99.90;;;;;;5040241;28;20025;-85
2021/01/13 06:54:19;;;;;;;18.73;5.65;;;8.80;99.90;;;;;;5030868;28;20389;-85
2021/01/13 06:56:49;;;;;;;15.18;4.53;;;8.90;99.90;;;;;;5032933;28;20028;-85
2021/01/13 06:59:16;;;;;;;18.60;5.05;;;8.80;99.90;;;;;;5032683;28;20021;-85
2021/01/13 07:01:56;;;;;;;15.68;4.57;;;8.80;99.90;;;;;;5039003;28;20107;-84
2021/01/13 07:04:22;;;;;;;16.63;5.25;;;8.80;99.90;;;;;;5046650;28;20041;-84
2021/01/13 07:07:00;;;;;;;17.25;4.55;;;8.90;99.90;;;;;;5030787;28;20029;-84
2021/01/13 07:09:38;;;;;;;8.57;4.13;;;8.90;99.90;;;;;;5034984;28;20086;-84
2021/01/13 07:12:13;;;;;;;9.38;3.67;;;9.00;99.90;;;;;;5048347;28;20570;-85
2021/01/13 07:14:42;;;;;;;11.70;3.25;;;9.00;99.90;;;;;;5044948;28;20021;-84
2021/01/13 07:17:10;;;;;;;9.82;2.97;;;9.20;99.90;;;;;;5034231;28;20026;-84
2021/01/13 07:19:37;;;;;;;8.15;3.08;;;9.10;99.90;;;;;;5041051;28;20020;-85
2021/01/13 07:22:06;;;;;;;14.75;3.50;;;9.10;99.90;;;;;;5038124;28;20401;-84
2021/01/13 07:24:32;;;;;;;9.32;2.85;;;9.10;99.90;;;;;;5051510;28;20041;-84
2021/01/13 07:26:58;;;;;;;12.20;2.72;;;9.10;99.90;;;;;;5031708;28;20025;-83
2021/01/13 07:29:26;;;;;;;6.75;2.30;;;9.10;99.90;;;;;;5033534;28;20036;-83
2021/01/13 07:31:57;;;;;;;5.15;2.10;;;9.20;99.90;;;;;;5034565;28;20025;-83
2021/01/13 07:34:26;;;;;;;7.57;2.13;;;9.20;99.90;;;;;;5060491;28;20033;-85
2021/01/13 07:36:59;;;;;;;14.98;6.75;;;9.20;99.90;;;;;;5030791;28;20040;-85
2021/01/13 07:39:40;;;;;;;9.63;3.63;;;9.20;99.90;;;;;;5031064;28;20386;-83
2021/01/13 07:42:40;;;;;;;8.30;3.13;;;9.20;99.90;;;;;;5032788;28;20422;-84
2021/01/13 07:45:15;;;;;;;9.30;2.95;;;9.30;99.90;;;;;;5030370;28;20433;-84
2021/01/13 07:47:56;;;;;;;9.40;3.13;;;9.20;99.90;;;;;;5049788;28;20371;-84
2021/01/13 07:50:23;;;;;;;9.57;3.10;;;9.30;99.90;;;;;;5033032;28;20033;-87
2021/01/13 07:52:52;;;;;;;6.68;3.17;;;9.30;99.90;;;;;;5058507;28;20027;-88
2021/01/13 07:55:22;;;;;;;4.57;2.65;;;9.30;99.90;;;;;;5039048;28;20025;-87
2021/01/13 07:57:53;;;;;;;14.82;3.70;;;9.30;99.90;;;;;;5048264;28;20051;-87
2021/01/13 08:00:31;;;;;;;13.30;3.08;;;9.30;99.90;;;;;;5043393;28;20046;-88
2021/01/13 08:03:15;;;;;;;5.88;2.83;;;9.30;99.90;;;;;;5036854;28;20025;-87
2021/01/13 08:05:55;;;;;;;7.95;2.53;;;9.30;99.90;;;;;;5034594;28;20030;-88
2021/01/13 08:08:25;;;;;;;5.88;2.10;;;9.30;99.90;;;;;;5026574;28;20071;-88
2021/01/13 08:10:52;;;;;;;4.93;2.10;;;9.30;99.90;;;;;;5033854;28;20478;-87
2021/01/13 08:13:20;;;;;;;12.73;2.65;;;9.30;99.90;;;;;;5029182;28;20033;-87
2021/01/13 08:16:24;;;;;;;8.70;4.47;;;9.30;99.90;;;;;;5036722;28;20021;-87
2021/01/13 08:19:17;;;;;;;4.78;2.15;;;9.30;99.90;;;;;;5034471;28;20025;-87
2021/01/13 08:21:50;;;;;;;9.32;3.72;;;9.30;99.90;;;;;;5047843;28;20034;-87
2021/01/13 08:24:19;;;;;;;7.20;2.00;;;9.30;99.90;;;;;;5038012;28;20083;-88
2021/01/13 08:26:45;;;;;;;8.65;2.35;;;9.40;99.90;;;;;;5029359;28;20029;-87
2021/01/13 08:29:21;;;;;;;16.92;2.85;;;9.40;99.90;;;;;;5032289;28;20113;-88
2021/01/13 08:31:50;;;;;;;12.35;2.80;;;9.40;99.90;;;;;;5034209;28;20055;-88
2021/01/13 08:34:18;;;;;;;7.85;3.03;;;9.40;99.90;;;;;;5032720;28;20021;-87
2021/01/13 08:36:55;;;;;;;10.02;2.50;;;9.40;99.90;;;;;;5026842;28;20075;-88
2021/01/13 08:39:29;;;;;;;4.40;2.30;;;9.40;99.90;;;;;;5031618;28;20447;-88
2021/01/13 08:42:23;;;;;;;12.60;2.65;;;9.50;99.90;;;;;;5031823;28;20044;-88
2021/01/13 08:44:52;;;;;;;11.98;2.97;;;9.40;99.90;;;;;;5034413;28;20122;-88
2021/01/13 08:47:18;;;;;;;14.07;3.08;;;9.40;99.90;;;;;;5035178;28;20375;-88
2021/01/13 08:49:44;;;;;;;;;;;9.40;99.90;;;;;;5040686;28;20405;-88
2021/01/13 08:52:23;;;;;;;12.98;3.10;;;9.50;99.90;;;;;;5034661;28;19944;-87
2021/01/13 08:54:48;;;;;;;11.65;2.70;;;9.40;99.90;;;;;;5054876;28;20140;-88
2021/01/13 08:57:16;;;;;;;9.38;2.80;;;9.50;99.90;;;;;;5033226;28;20056;-88
2021/01/13 08:59:46;;;;;;;10.90;3.20;;;9.50;99.90;;;;;;5046314;28;20024;-89
2021/01/13 09:02:17;;;;;;;17.10;3.10;;;9.50;99.90;;;;;;5033143;28;20032;-88
2021/01/13 09:04:52;;;;;;;12.75;3.05;;;9.50;99.90;;;;;;5038643;28;20045;-88
2021/01/13 09:07:20;;;;;;;16.77;2.95;;;9.50;99.90;;;;;;5036870;28;20028;-87
2021/01/13 09:10:01;;;;;;;16.85;3.58;;;9.50;99.90;;;;;;5040247;28;20017;-87
2021/01/13 09:12:42;;;;;;;5.03;2.40;;;9.50;99.90;;;;;;5036518;28;20394;-87
2021/01/13 09:15:07;;;;;;;11.43;3.42;;;9.50;99.90;;;;;;5036005;28;20021;-87
2021/01/13 09:17:40;;;;;;;6.47;2.60;;;9.50;99.90;;;;;;5040496;28;20354;-87
2021/01/13 09:20:17;;;;;;;11.05;2.70;;;9.60;99.90;;;;;;5037040;28;20025;-87
2021/01/13 09:22:43;;;;;;;;;;;9.50;99.90;;;;;;5028498;28;20033;-87
2021/01/13 09:25:14;;;;;;;12.05;3.22;;;9.60;99.90;;;;;;5025495;28;19959;-87
2021/01/13 09:27:43;;;;;;;8.93;2.38;;;9.60;99.90;;;;;;5042546;28;20036;-88
2021/01/13 09:30:09;;;;;;;13.80;4.32;;;9.60;99.90;;;;;;5057998;28;20009;-87
2021/01/13 09:32:52;;;;;;;8.77;2.70;;;9.60;99.90;;;;;;5054644;28;20025;-87
2021/01/13 09:35:32;;;;;;;16.67;4.53;;;9.60;99.90;;;;;;5035088;28;20025;-87
2021/01/13 09:38:05;;;;;;;6.03;2.17;;;9.60;99.90;;;;;;5035404;28;20025;-87
2021/01/13 09:40:51;;;;;;;12.48;2.42;;;9.60;99.90;;;;;;5035312;28;20106;-88
2021/01/13 09:43:28;;;;;;;13.75;2.92;;;9.70;99.90;;;;;;5058332;28;20147;-87
2021/01/13 09:45:57;;;;;;;19.70;7.05;;;9.70;99.90;;;;;;5056945;28;20108;-87
2021/01/13 09:48:24;;;;;;;9.05;1.92;;;9.60;99.90;;;;;;5031901;28;20021;-87
2021/01/13 09:51:02;;;;;;;10.00;1.67;;;9.70;99.90;;;;;;5036376;28;20021;-88
2021/01/13 09:53:36;;;;;;;12.73;1.80;;;9.80;99.60;;;;;;5046531;28;20039;-87
2021/01/13 09:56:07;;;;;;;8.50;1.80;;;9.80;99.70;;;;;;5049461;28;20031;-86
2021/01/13 09:58:40;;;;;;;6.82;1.58;;;9.80;99.80;;;;;;5038879;28;20402;-87
2021/01/13 10:01:12;;;;;;;6.47;1.35;;;9.80;99.60;;;;;;5027655;28;20518;-87
2021/01/13 10:03:39;;;;;;;11.23;1.80;;;9.80;99.80;;;;;;5056018;28;20032;-88
2021/01/13 10:06:12;;;;;;;4.72;1.65;;;9.90;99.40;;;;;;5042630;28;20017;-88
2021/01/13 10:08:38;;;;;;;12.93;2.60;;;9.80;99.50;;;;;;5062252;28;20049;-86
2021/01/13 10:11:04;;;;;;;6.75;1.40;;;9.90;99.60;;;;;;5047530;28;20009;-88
2021/01/13 10:13:30;;;;;;;;;;;9.80;99.80;;;;;;5045482;28;20040;-87
2021/01/13 10:16:00;;;;;;;7.15;1.80;;;9.80;99.80;;;;;;5037311;28;19909;-87
2021/01/13 10:18:27;;;;;;;12.10;2.35;;;9.80;99.70;;;;;;5046883;28;20061;-87
2021/01/13 10:21:01;;;;;;;10.48;2.00;;;9.80;99.70;;;;;;5034838;28;20083;-87
2021/01/13 10:23:29;;;;;;;11.60;2.22;;;9.70;99.70;;;;;;5042259;28;20024;-88
2021/01/13 10:26:07;;;;;;;9.25;2.53;;;9.80;99.60;;;;;;5050791;28;20104;-87
2021/01/13 10:28:37;;;;;;;14.65;2.92;;;9.80;99.60;;;;;;5057639;28;20111;-84
2021/01/13 10:31:04;;;;;;;7.15;1.83;;;9.80;99.40;;;;;;5044341;28;20060;-85
2021/01/13 10:33:52;;;;;;;10.27;2.28;;;9.80;99.40;;;;;;5041651;28;20063;-85
2021/01/13 10:36:56;;;;;;;8.23;1.85;;;9.90;99.30;;;;;;5049296;28;20021;-85
2021/01/13 10:39:27;;;;;;;12.20;2.55;;;9.80;99.30;;;;;;5027821;28;20128;-84
2021/01/13 10:41:54;;;;;;;9.85;1.83;;;9.80;99.50;;;;;;5033482;28;20139;-85
2021/01/13 10:44:21;;;;;;;12.00;2.22;;;9.90;99.00;;;;;;5030791;28;20414;-84
2021/01/13 10:46:51;;;;;;;9.63;1.67;;;9.90;99.30;;;;;;5040192;28;20021;-84
2021/01/13 10:49:36;;;;;;;11.20;2.42;;;9.80;99.20;;;;;;5038889;28;20021;-85
2021/01/13 10:52:04;;;;;;;18.73;2.22;;;9.80;99.40;;;;;;5046752;28;20124;-84
2021/01/13 10:54:37;;;;;;;9.50;1.98;;;9.80;99.60;;;;;;5037017;28;20021;-85
2021/01/13 10:57:08;;;;;;;14.88;1.70;;;9.80;99.50;;;;;;5035428;28;20119;-85
2021/01/13 10:59:36;;;;;;;12.38;2.00;;;9.90;99.10;;;;;;5030281;28;20043;-85
2021/01/13 11:02:06;;;;;;;6.32;1.63;;;9.90;99.10;;;;;;5035913;28;20036;-85
2021/01/13 11:04:39;;;;;;;12.45;1.58;;;9.90;99.20;;;;;;5046352;28;20378;-84
2021/01/13 11:07:09;;;;;;;8.65;2.20;;;9.80;99.10;;;;;;5042105;28;20055;-85
2021/01/13 11:09:37;;;;;;;10.25;1.70;;;9.80;98.90;;;;;;5025472;28;20017;-85
2021/01/13 11:12:04;;;;;;;8.10;1.77;;;9.80;99.00;;;;;;5036316;28;20033;-85
2021/01/13 11:14:30;;;;;;;17.65;2.17;;;9.90;98.70;;;;;;5046025;28;20024;-84
2021/01/13 11:17:01;;;;;;;16.50;1.77;;;9.90;98.70;;;;;;5038529;28;20041;-85
2021/01/13 11:19:28;;;;;;;9.88;2.28;;;9.90;98.70;;;;;;5037050;28;20071;-82
2021/01/13 11:21:57;;;;;;;11.10;2.05;;;10.00;98.50;;;;;;5056034;28;20035;-83
2021/01/13 11:24:30;;;;;;;8.88;2.05;;;10.00;98.80;;;;;;5046534;28;20044;-84
2021/01/13 11:27:00;;;;;;;12.65;2.10;;;10.00;98.40;;;;;;5037907;28;20028;-84
2021/01/13 11:29:29;;;;;;;8.40;2.03;;;10.00;98.50;;;;;;5041455;28;20025;-84
2021/01/13 11:31:56;;;;;;;15.65;2.30;;;9.90;98.90;;;;;;5048890;28;20053;-84
2021/01/13 11:34:23;;;;;;;14.02;2.20;;;9.90;98.90;;;;;;5038338;28;20040;-84
2021/01/13 11:37:11;;;;;;;11.32;2.00;;;9.90;99.00;;;;;;5032417;28;20132;-84
2021/01/13 11:40:04;;;;;;;18.77;2.33;;;9.90;98.80;;;;;;5038337;28;20059;-85
2021/01/13 11:42:57;;;;;;;10.23;1.92;;;10.00;98.80;;;;;;5032313;28;20098;-84
2021/01/13 11:45:33;;;;;;;15.65;1.67;;;10.00;98.70;;;;;;5038064;28;20021;-84
2021/01/13 11:48:06;;;;;;;15.02;2.80;;;10.10;98.80;;;;;;5038380;28;20048;-84
2021/01/13 11:50:38;;;;;;;9.13;1.90;;;10.00;98.60;;;;;;5056257;28;20021;-83
2021/01/13 11:53:06;;;;;;;15.20;2.03;;;10.00;98.50;;;;;;5037914;28;20087;-84
2021/01/13 11:55:34;;;;;;;13.32;2.15;;;10.00;98.50;;;;;;5029986;28;20025;-84
2021/01/13 11:58:00;;;;;;;9.68;1.63;;;10.00;98.80;;;;;;5062220;28;20017;-84
2021/01/13 12:00:30;;;;;;;14.65;2.17;;;10.00;98.70;;;;;;5046879;28;20048;-84
2021/01/13 12:03:00;;;;;;;15.98;3.08;;;10.00;98.80;;;;;;5044680;28;20021;-84
2021/01/13 12:05:30;;;;;;;13.98;1.90;;;10.00;98.90;;;;;;5043472;28;20025;-84
2021/01/13 12:07:57;;;;;;;20.92;2.60;;;10.00;98.80;;;;;;5018570;28;20024;-84
2021/01/13 12:10:28;;;;;;;11.60;2.65;;;10.00;98.80;;;;;;5037236;28;20059;-85
2021/01/13 12:13:11;;;;;;;15.20;2.45;;;10.00;98.80;;;;;;5034013;28;20025;-84
2021/01/13 12:16:04;;;;;;;22.08;2.63;;;10.00;99.00;;;;;;5023673;28;20413;-84
2021/01/13 12:18:36;;;;;;;15.55;2.60;;;10.00;99.30;;;;;;5061809;28;20068;-84
2021/01/13 12:21:28;;;;;;;11.35;2.00;;;10.00;99.20;;;;;;5039270;28;20052;-84
2021/01/13 12:23:56;;;;;;;13.13;2.17;;;10.00;99.00;;;;;;5041050;28;20546;-84
2021/01/13 12:26:31;;;;;;;11.27;2.50;;;10.00;99.40;;;;;;5043614;28;20013;-84
2021/01/13 12:29:09;;;;;;;8.25;1.70;;;9.90;99.40;;;;;;5027028;28;20037;-84
2021/01/13 12:31:40;;;;;;;10.05;2.30;;;10.00;99.20;;;;;;5054230;28;20020;-85
2021/01/13 12:34:18;;;;;;;13.82;2.88;;;10.00;98.90;;;;;;5039327;28;20028;-85
2021/01/13 12:36:46;;;;;;;19.92;3.15;;;10.00;99.20;;;;;;5031363;28;20062;-85
2021/01/13 12:39:23;;;;;;;12.23;1.88;;;10.00;99.20;;;;;;5036935;28;20036;-85
2021/01/13 12:41:51;;;;;;;7.50;2.00;;;10.00;99.10;;;;;;5046279;28;20013;-84
2021/01/13 12:44:29;;;;;;;19.20;3.05;;;10.00;98.90;;;;;;5054767;28;20029;-84
2021/01/13 12:47:03;;;;;;;18.42;2.95;;;10.00;99.00;;;;;;5030326;28;20402;-84
2021/01/13 12:49:30;;;;;;;17.25;2.90;;;10.00;98.80;;;;;;5052076;28;20025;-85
2021/01/13 12:51:58;;;;;;;21.35;3.08;;;10.00;99.00;;;;;;5031557;28;20482;-84
2021/01/13 12:54:24;;;;;;;14.98;2.33;;;10.00;98.80;;;;;;5030070;28;20086;-85
2021/01/13 12:56:51;;;;;;;17.65;2.90;;;10.00;98.50;;;;;;5025486;28;20025;-85
2021/01/13 12:59:17;;;;;;;25.13;3.80;;;10.10;98.50;;;;;;5039134;28;20028;-82
2021/01/13 13:01:44;;;;;;;15.57;3.17;;;10.10;98.20;;;;;;5050949;28;20029;-83
2021/01/13 13:04:10;;;;;;;15.32;3.13;;;10.00;98.00;;;;;;5040310;28;20554;-83
2021/01/13 13:06:38;;;;;;;31.90;3.97;;;10.00;98.20;;;;;;5037866;28;20035;-83
2021/01/13 13:09:05;;;;;;;19.25;3.20;;;10.10;97.90;;;;;;5055764;28;20039;-83
2021/01/13 13:11:31;;;;;;;25.48;3.25;;;10.10;98.00;;;;;;5047548;28;20048;-89